createdAt,value
2019-03-19T00:03:00.147Z,3.86
2019-03-19T00:08:02.469Z,3.84
2019-03-19T00:13:04.638Z,3.80
2019-03-19T00:18:06.729Z,3.75
2019-03-19T00:23:08.956Z,3.76
2019-03-19T00:28:11.049Z,3.60
2019-03-19T00:33:13.119Z,3.68
2019-03-19T00:38:15.147Z,3.56
2019-03-19T00:43:17.249Z,3.64
2019-03-19T00:48:19.264Z,3.52
2019-03-19T00:53:21.598Z,3.47
2019-03-19T00:58:23.706Z,3.36
2019-03-19T01:03:25.788Z,3.25
2019-03-19T01:08:27.832Z,3.27
2019-03-19T01:13:29.985Z,3.13
2019-03-19T01:18:32.035Z,3.03
2019-03-19T01:23:34.147Z,2.96
2019-03-19T01:28:36.231Z,2.91
2019-03-19T01:33:38.332Z,2.87
2019-03-19T01:38:40.475Z,2.93
2019-03-19T01:43:42.543Z,2.80
2019-03-19T01:48:44.595Z,2.76
2019-03-19T01:53:46.730Z,2.72
2019-03-19T01:58:48.764Z,2.66
2019-03-19T02:03:50.830Z,2.54
2019-03-19T02:08:53.009Z,2.68
2019-03-19T02:13:55.073Z,2.69
2019-03-19T02:18:57.280Z,2.49
2019-03-19T02:23:59.328Z,2.60
2019-03-19T02:29:01.432Z,2.53
2019-03-19T02:34:03.488Z,2.52
2019-03-19T02:39:07.687Z,2.60
2019-03-19T02:44:09.742Z,2.57
2019-03-19T02:49:11.964Z,2.48
2019-03-19T02:54:14.053Z,2.55
2019-03-19T02:59:16.089Z,2.55
2019-03-19T03:04:18.202Z,2.44
2019-03-19T03:09:20.540Z,2.40
2019-03-19T03:14:22.975Z,2.41
2019-03-19T03:19:25.133Z,2.22
2019-03-19T03:24:27.240Z,2.36
2019-03-19T03:29:30.466Z,2.26
2019-03-19T03:34:32.603Z,2.35
2019-03-19T03:39:34.643Z,2.17
2019-03-19T03:44:36.926Z,2.06
2019-03-19T03:49:39.016Z,2.10
2019-03-19T03:54:41.099Z,2.00
2019-03-19T03:59:43.169Z,1.97
2019-03-19T04:04:45.293Z,1.95
2019-03-19T04:09:47.342Z,1.85
2019-03-19T04:14:49.741Z,1.75
2019-03-19T04:19:51.839Z,1.64
2019-03-19T04:24:53.903Z,1.64
2019-03-19T04:29:56.008Z,1.57
2019-03-19T04:34:58.033Z,1.55
2019-03-19T04:40:00.409Z,1.57
2019-03-19T04:45:03.362Z,1.53
2019-03-19T04:50:06.720Z,1.51
2019-03-19T04:55:09.523Z,1.51
2019-03-19T05:00:11.824Z,1.45
2019-03-19T05:05:13.936Z,1.36
2019-03-19T05:10:16.059Z,1.41
2019-03-19T05:15:18.334Z,1.38
2019-03-19T05:20:20.463Z,1.23
2019-03-19T05:25:22.549Z,1.35
2019-03-19T05:30:25.062Z,1.26
2019-03-19T05:35:27.677Z,1.16
2019-03-19T05:40:29.709Z,1.19
2019-03-19T05:45:31.895Z,1.18
2019-03-19T05:50:34.151Z,1.32
2019-03-19T05:55:36.571Z,1.26
2019-03-19T06:00:38.651Z,1.31
2019-03-19T06:05:40.788Z,1.32
2019-03-19T06:10:43.054Z,1.26
2019-03-19T06:15:45.206Z,1.44
2019-03-19T06:20:47.311Z,1.39
2019-03-19T06:25:50.043Z,1.54
2019-03-19T06:30:52.159Z,1.64
2019-03-19T06:35:54.366Z,1.59
2019-03-19T06:40:56.418Z,1.81
2019-03-19T06:46:00.174Z,1.92
2019-03-19T06:51:02.759Z,1.97
2019-03-19T06:56:04.782Z,2.23
2019-03-19T07:01:07.234Z,2.13
2019-03-19T07:06:09.291Z,2.05
2019-03-19T07:11:11.852Z,2.44
2019-03-19T07:16:15.503Z,2.36
2019-03-19T07:21:17.523Z,2.69
2019-03-19T07:26:19.866Z,2.84
2019-03-19T07:31:30.493Z,3.00
2019-03-19T07:36:26.421Z,3.25
2019-03-19T07:41:28.714Z,3.37
2019-03-19T07:46:31.424Z,3.45
2019-03-19T07:51:33.464Z,3.69
2019-03-19T07:56:35.771Z,3.78
2019-03-19T08:01:38.476Z,3.88
2019-03-19T08:06:40.666Z,3.89
2019-03-19T08:11:42.854Z,4.18
2019-03-19T08:16:45.084Z,4.41
2019-03-19T08:21:47.157Z,4.52
2019-03-19T08:26:49.685Z,4.60
2019-03-19T08:31:52.620Z,4.80
2019-03-19T08:36:54.798Z,4.98
2019-03-19T08:41:57.230Z,5.06
2019-03-19T08:47:00.581Z,5.22
2019-03-19T08:52:02.679Z,5.36
2019-03-19T08:57:04.716Z,5.38
2019-03-19T09:02:07.085Z,5.55
2019-03-19T09:07:09.117Z,5.69
2019-03-19T09:12:11.206Z,5.82
2019-03-19T09:17:13.326Z,5.84
2019-03-19T09:22:15.734Z,6.03
2019-03-19T09:27:18.155Z,6.22
2019-03-19T09:32:20.344Z,6.30
2019-03-19T09:37:22.386Z,6.64
2019-03-19T09:42:24.422Z,6.67
2019-03-19T09:47:26.500Z,6.79
2019-03-19T09:52:28.843Z,6.99
2019-03-19T09:57:30.914Z,7.24
2019-03-19T10:02:32.943Z,7.18
2019-03-19T10:07:34.931Z,7.69
2019-03-19T10:12:37.446Z,7.75
2019-03-19T10:17:39.507Z,7.35
2019-03-19T10:22:49.837Z,7.21
2019-03-19T10:27:51.906Z,6.86
2019-03-19T10:32:54.010Z,7.55
2019-03-19T10:37:56.030Z,7.31
2019-03-19T10:42:58.076Z,8.19
2019-03-19T10:48:00.134Z,8.55
2019-03-19T10:53:02.194Z,8.37
2019-03-19T10:58:11.035Z,8.69
2019-03-19T11:03:08.457Z,8.24
2019-03-19T11:08:10.719Z,8.44
2019-03-19T11:13:12.765Z,8.43
2019-03-19T11:18:15.241Z,8.14
2019-03-19T11:23:17.290Z,7.88
2019-03-19T11:28:19.344Z,8.03
2019-03-19T11:33:21.363Z,7.86
2019-03-19T11:38:23.375Z,7.61
2019-03-19T11:43:25.477Z,7.97
2019-03-19T11:48:27.797Z,8.21
2019-03-19T11:53:29.827Z,8.48
2019-03-19T11:58:31.868Z,8.54
2019-03-19T12:03:33.883Z,8.38
2019-03-19T12:08:36.402Z,7.89
2019-03-19T12:13:38.452Z,8.21
2019-03-19T12:18:40.641Z,8.54
2019-03-19T12:23:42.718Z,8.77
2019-03-19T12:28:47.129Z,8.38
2019-03-19T12:33:49.186Z,8.80
2019-03-19T12:38:51.291Z,8.71
2019-03-19T12:43:53.320Z,9.08
2019-03-19T12:48:55.957Z,9.02
2019-03-19T12:53:57.986Z,8.84
2019-03-19T12:59:00.056Z,8.63
2019-03-19T13:04:02.137Z,8.80
2019-03-19T13:09:06.297Z,8.59
2019-03-19T13:14:08.831Z,8.84
2019-03-19T13:19:11.036Z,8.49
2019-03-19T13:24:13.130Z,8.41
2019-03-19T13:29:15.218Z,8.74
2019-03-19T13:34:17.270Z,9.08
2019-03-19T13:39:19.690Z,9.01
2019-03-19T13:44:21.719Z,9.45
2019-03-19T13:49:24.039Z,8.82
2019-03-19T13:54:26.206Z,9.45
2019-03-19T13:59:28.219Z,9.76
2019-03-19T14:04:30.273Z,10.05
2019-03-19T14:09:32.394Z,10.32
2019-03-19T14:14:34.607Z,10.78
2019-03-19T14:19:36.666Z,10.78
2019-03-19T14:24:39.021Z,10.47
2019-03-19T14:29:41.198Z,10.25
2019-03-19T14:34:43.276Z,10.52
2019-03-19T14:39:45.344Z,9.82
2019-03-19T14:44:47.373Z,9.57
2019-03-19T14:49:50.066Z,9.56
2019-03-19T14:54:52.167Z,9.30
2019-03-19T14:59:54.554Z,10.22
2019-03-19T15:04:56.898Z,11.14
2019-03-19T15:09:58.949Z,19.46
2019-03-19T15:15:01.403Z,12.20
2019-03-19T15:20:06.650Z,12.20
2019-03-19T15:25:09.540Z,11.81
2019-03-19T15:30:12.152Z,11.41
2019-03-19T15:35:14.314Z,10.65
2019-03-19T15:40:16.452Z,10.62
2019-03-19T15:45:18.641Z,10.62
2019-03-19T15:50:20.825Z,10.53
2019-03-19T15:55:23.793Z,10.23
2019-03-19T16:00:26.085Z,9.93
2019-03-19T16:05:28.107Z,9.96
2019-03-19T16:10:30.136Z,9.93
2019-03-19T16:15:32.541Z,9.76
2019-03-19T16:20:34.563Z,9.64
2019-03-19T16:25:36.653Z,9.56
2019-03-19T16:30:39.042Z,9.54
2019-03-19T16:35:41.088Z,9.46
2019-03-19T16:40:43.135Z,9.43
2019-03-19T16:45:45.165Z,9.44
2019-03-19T16:50:47.200Z,9.29
2019-03-19T16:55:49.363Z,9.18
2019-03-19T17:00:51.418Z,9.06
2019-03-19T17:05:53.602Z,9.01
2019-03-19T17:10:55.690Z,8.84
2019-03-19T17:15:57.844Z,8.73
2019-03-19T17:21:00.396Z,8.62
2019-03-19T17:26:02.474Z,8.51
2019-03-19T17:31:04.568Z,8.30
2019-03-19T17:36:06.620Z,8.17
2019-03-19T17:41:08.784Z,8.02
2019-03-19T17:46:11.097Z,7.88
2019-03-19T17:51:13.239Z,7.76
2019-03-19T17:56:15.413Z,7.68
2019-03-19T18:01:17.917Z,7.53
2019-03-19T18:06:20.052Z,7.56
2019-03-19T18:11:22.300Z,7.61
2019-03-19T18:16:24.550Z,7.53
2019-03-19T18:21:26.581Z,7.48
2019-03-19T18:26:28.726Z,7.42
2019-03-19T18:31:30.797Z,7.43
2019-03-19T18:36:32.869Z,7.24
2019-03-19T18:41:34.911Z,7.08
2019-03-19T18:46:37.009Z,7.04
2019-03-19T18:51:39.059Z,7.10
2019-03-19T18:56:41.089Z,7.14
2019-03-19T19:01:43.135Z,7.15
2019-03-19T19:06:45.488Z,6.92
2019-03-19T19:11:47.578Z,6.85
2019-03-19T19:16:49.646Z,6.80
2019-03-19T19:21:51.748Z,6.82
2019-03-19T19:26:53.823Z,6.86
2019-03-19T19:31:55.969Z,6.67
2019-03-19T19:36:58.193Z,6.66
2019-03-19T19:42:00.211Z,6.58
2019-03-19T19:47:02.332Z,6.51
2019-03-19T19:52:04.481Z,6.52
2019-03-19T19:57:06.873Z,6.41
2019-03-19T20:02:08.924Z,6.29
2019-03-19T20:07:11.917Z,6.35
2019-03-19T20:12:13.954Z,6.26
2019-03-19T20:17:16.012Z,6.19
2019-03-19T20:22:18.019Z,6.17
2019-03-19T20:27:20.102Z,6.10
2019-03-19T20:32:22.344Z,6.08
2019-03-19T20:37:24.773Z,6.22
2019-03-19T20:42:27.072Z,6.16
2019-03-19T20:47:29.296Z,6.04
2019-03-19T20:52:31.441Z,6.02
2019-03-19T20:57:35.146Z,6.15
2019-03-19T21:02:39.683Z,6.16
2019-03-19T21:07:41.781Z,6.17
2019-03-19T21:12:44.290Z,6.00
2019-03-19T21:17:47.088Z,5.93
2019-03-19T21:22:49.507Z,5.84
2019-03-19T21:27:51.739Z,5.76
2019-03-19T21:32:54.146Z,5.67
2019-03-19T21:37:56.271Z,5.60
2019-03-19T21:42:58.482Z,5.52
2019-03-19T21:48:00.816Z,5.53
2019-03-19T21:53:06.254Z,5.41
2019-03-19T21:58:08.348Z,5.40
2019-03-19T22:03:10.491Z,5.19
2019-03-19T22:08:15.431Z,5.18
2019-03-19T22:13:17.452Z,5.12
2019-03-19T22:18:19.560Z,5.06
2019-03-19T22:23:21.667Z,5.01
2019-03-19T22:28:23.774Z,4.91
2019-03-19T22:33:26.118Z,4.92
2019-03-19T22:38:28.187Z,4.75
2019-03-19T22:43:32.122Z,4.87
2019-03-19T22:48:34.157Z,4.64
2019-03-19T22:53:36.318Z,4.67
2019-03-19T22:58:38.411Z,4.62
2019-03-19T23:03:40.811Z,4.55
2019-03-19T23:08:44.768Z,4.46
2019-03-19T23:13:47.061Z,4.38
2019-03-19T23:18:49.228Z,4.45
2019-03-19T23:23:51.934Z,4.32
2019-03-19T23:28:54.196Z,4.12
2019-03-19T23:33:56.277Z,3.99
2019-03-19T23:38:58.539Z,3.94
2019-03-19T23:44:00.855Z,3.76
2019-03-19T23:49:02.928Z,3.87
2019-03-19T23:54:05.004Z,3.72
2019-03-19T23:59:07.072Z,3.59
